sensor_id;sensor_type;location;lat;lon;timestamp;pressure;altitude;pressure_sealevel;temperature;humidity
4273;BME280;63887;53.656;9.810;2022-12-04T00:00:42;102410.06;;;0.02;78.38
4273;BME280;63887;53.656;9.810;2022-12-04T00:03:09;102404.53;;;-0.23;80.12
4273;BME280;63887;53.656;9.810;2022-12-04T00:05:35;102401.06;;;-0.23;80.09
4273;BME280;63887;53.656;9.810;2022-12-04T00:08:02;102413.41;;;-0.04;79.59
4273;BME280;63887;53.656;9.810;2022-12-04T00:10:28;102403.03;;;-0.07;79.27
4273;BME280;63887;53.656;9.810;2022-12-04T00:12:56;102414.22;;;-0.08;79.44
4273;BME280;63887;53.656;9.810;2022-12-04T00:15:23;102408.06;;;-0.16;79.68
4273;BME280;63887;53.656;9.810;2022-12-04T00:17:49;102409.13;;;-0.02;79.59
4273;BME280;63887;53.656;9.810;2022-12-04T00:20:16;102411.69;;;-0.04;79.58
4273;BME280;63887;53.656;9.810;2022-12-04T00:22:42;102411.69;;;-0.05;79.85
4273;BME280;63887;53.656;9.810;2022-12-04T00:25:09;102409.00;;;-0.13;80.18
4273;BME280;63887;53.656;9.810;2022-12-04T00:27:35;102408.22;;;-0.07;79.43
4273;BME280;63887;53.656;9.810;2022-12-04T00:30:04;102413.50;;;0.01;79.58
4273;BME280;63887;53.656;9.810;2022-12-04T00:32:31;102414.50;;;0.12;78.99
4273;BME280;63887;53.656;9.810;2022-12-04T00:34:57;102422.81;;;-0.08;79.59
4273;BME280;63887;53.656;9.810;2022-12-04T00:37:23;102415.38;;;0.12;79.68
4273;BME280;63887;53.656;9.810;2022-12-04T00:39:50;102416.97;;;0.04;79.17
4273;BME280;63887;53.656;9.810;2022-12-04T00:42:16;102414.44;;;0.07;79.38
4273;BME280;63887;53.656;9.810;2022-12-04T00:44:43;102418.59;;;-0.03;79.70
4273;BME280;63887;53.656;9.810;2022-12-04T00:47:11;102411.88;;;0.07;79.13
4273;BME280;63887;53.656;9.810;2022-12-04T00:49:37;102417.03;;;0.07;79.73
4273;BME280;63887;53.656;9.810;2022-12-04T00:52:03;102414.38;;;0.01;79.46
4273;BME280;63887;53.656;9.810;2022-12-04T00:54:30;102416.06;;;0.01;79.36
4273;BME280;63887;53.656;9.810;2022-12-04T00:56:57;102412.78;;;0.12;79.06
4273;BME280;63887;53.656;9.810;2022-12-04T00:59:23;102407.50;;;0.02;79.64
4273;BME280;63887;53.656;9.810;2022-12-04T01:01:49;102405.78;;;0.02;79.46
4273;BME280;63887;53.656;9.810;2022-12-04T01:04:17;102408.47;;;0.10;79.22
4273;BME280;63887;53.656;9.810;2022-12-04T01:06:45;102405.66;;;-0.04;80.26
4273;BME280;63887;53.656;9.810;2022-12-04T01:09:12;102406.94;;;0.24;79.39
4273;BME280;63887;53.656;9.810;2022-12-04T01:11:38;102405.00;;;0.09;80.29
4273;BME280;63887;53.656;9.810;2022-12-04T01:14:04;102403.00;;;-0.10;81.22
4273;BME280;63887;53.656;9.810;2022-12-04T01:16:34;102401.22;;;-0.14;81.06
4273;BME280;63887;53.656;9.810;2022-12-04T01:19:03;102398.78;;;-0.04;80.99
4273;BME280;63887;53.656;9.810;2022-12-04T01:21:31;102402.44;;;0.09;80.59
4273;BME280;63887;53.656;9.810;2022-12-04T01:23:58;102401.53;;;0.06;80.18
4273;BME280;63887;53.656;9.810;2022-12-04T01:26:25;102408.44;;;0.08;80.07
4273;BME280;63887;53.656;9.810;2022-12-04T01:28:51;102405.13;;;0.17;80.36
4273;BME280;63887;53.656;9.810;2022-12-04T01:31:20;102399.81;;;0.06;80.55
4273;BME280;63887;53.656;9.810;2022-12-04T01:33:47;102397.22;;;0.06;81.13
4273;BME280;63887;53.656;9.810;2022-12-04T01:36:16;102403.97;;;-0.02;81.91
4273;BME280;63887;53.656;9.810;2022-12-04T01:38:44;102397.16;;;0.00;81.83
4273;BME280;63887;53.656;9.810;2022-12-04T01:41:12;102393.09;;;0.16;80.83
4273;BME280;63887;53.656;9.810;2022-12-04T01:43:40;102398.97;;;0.09;81.51
4273;BME280;63887;53.656;9.810;2022-12-04T01:46:07;102394.75;;;0.14;80.91
4273;BME280;63887;53.656;9.810;2022-12-04T01:48:36;102395.53;;;0.08;81.21
4273;BME280;63887;53.656;9.810;2022-12-04T01:51:06;102393.59;;;-0.07;81.69
4273;BME280;63887;53.656;9.810;2022-12-04T01:53:36;102393.63;;;-0.04;82.52
4273;BME280;63887;53.656;9.810;2022-12-04T01:56:05;102395.44;;;0.01;82.15
4273;BME280;63887;53.656;9.810;2022-12-04T01:58:36;102384.34;;;0.06;81.98
4273;BME280;63887;53.656;9.810;2022-12-04T02:01:05;102387.19;;;0.27;81.17
4273;BME280;63887;53.656;9.810;2022-12-04T02:03:32;102393.16;;;0.22;81.15
4273;BME280;63887;53.656;9.810;2022-12-04T02:05:59;102390.41;;;0.11;81.84
4273;BME280;63887;53.656;9.810;2022-12-04T02:08:26;102391.94;;;-0.03;82.38
4273;BME280;63887;53.656;9.810;2022-12-04T02:11:04;102392.16;;;0.12;81.68
4273;BME280;63887;53.656;9.810;2022-12-04T02:13:40;102392.13;;;0.11;82.19
4273;BME280;63887;53.656;9.810;2022-12-04T02:16:13;102399.75;;;0.02;82.18
4273;BME280;63887;53.656;9.810;2022-12-04T02:18:46;102389.53;;;0.09;81.86
4273;BME280;63887;53.656;9.810;2022-12-04T02:21:20;102387.59;;;-0.06;82.79
4273;BME280;63887;53.656;9.810;2022-12-04T02:24:03;102378.47;;;0.16;82.45
4273;BME280;63887;53.656;9.810;2022-12-04T02:26:39;102380.03;;;0.07;82.17
4273;BME280;63887;53.656;9.810;2022-12-04T02:29:11;102380.75;;;-0.02;83.03
4273;BME280;63887;53.656;9.810;2022-12-04T02:31:46;102375.06;;;0.20;82.07
4273;BME280;63887;53.656;9.810;2022-12-04T02:34:20;102374.19;;;0.18;82.75
4273;BME280;63887;53.656;9.810;2022-12-04T02:36:53;102368.72;;;-0.02;82.97
4273;BME280;63887;53.656;9.810;2022-12-04T02:39:24;102367.06;;;0.01;82.81
4273;BME280;63887;53.656;9.810;2022-12-04T02:41:55;102361.81;;;-0.06;83.60
4273;BME280;63887;53.656;9.810;2022-12-04T02:44:25;102366.16;;;-0.02;83.82
4273;BME280;63887;53.656;9.810;2022-12-04T02:46:56;102357.66;;;0.06;83.07
4273;BME280;63887;53.656;9.810;2022-12-04T02:49:27;102367.16;;;0.07;82.88
4273;BME280;63887;53.656;9.810;2022-12-04T02:51:56;102366.13;;;-0.03;83.04
4273;BME280;63887;53.656;9.810;2022-12-04T02:54:27;102368.63;;;-0.11;83.29
4273;BME280;63887;53.656;9.810;2022-12-04T02:56:57;102363.63;;;0.02;83.88
4273;BME280;63887;53.656;9.810;2022-12-04T02:59:29;102368.19;;;0.21;83.20
4273;BME280;63887;53.656;9.810;2022-12-04T03:02:00;102359.63;;;0.23;82.98
4273;BME280;63887;53.656;9.810;2022-12-04T03:04:28;102367.38;;;0.23;82.61
4273;BME280;63887;53.656;9.810;2022-12-04T03:06:58;102368.00;;;0.07;83.61
4273;BME280;63887;53.656;9.810;2022-12-04T03:09:30;102368.16;;;0.18;82.23
4273;BME280;63887;53.656;9.810;2022-12-04T03:12:04;102378.34;;;0.09;83.00
4273;BME280;63887;53.656;9.810;2022-12-04T03:14:34;102368.06;;;0.12;82.57
4273;BME280;63887;53.656;9.810;2022-12-04T03:17:05;102374.94;;;0.11;83.13
4273;BME280;63887;53.656;9.810;2022-12-04T03:19:39;102375.72;;;0.06;83.96
4273;BME280;63887;53.656;9.810;2022-12-04T03:22:09;102380.84;;;0.03;83.99
4273;BME280;63887;53.656;9.810;2022-12-04T03:24:38;102374.97;;;0.14;83.66
4273;BME280;63887;53.656;9.810;2022-12-04T03:27:10;102368.72;;;-0.03;83.95
4273;BME280;63887;53.656;9.810;2022-12-04T03:29:41;102377.28;;;-0.04;84.72
4273;BME280;63887;53.656;9.810;2022-12-04T03:32:12;102374.03;;;0.06;84.33
4273;BME280;63887;53.656;9.810;2022-12-04T03:34:47;102370.66;;;0.13;83.15
4273;BME280;63887;53.656;9.810;2022-12-04T03:37:18;102374.94;;;0.11;84.06
4273;BME280;63887;53.656;9.810;2022-12-04T03:39:54;102374.44;;;0.37;81.98
4273;BME280;63887;53.656;9.810;2022-12-04T03:42:24;102380.03;;;0.07;84.00
4273;BME280;63887;53.656;9.810;2022-12-04T03:44:57;102376.97;;;0.34;83.38
4273;BME280;63887;53.656;9.810;2022-12-04T03:47:30;102370.56;;;0.04;84.19
4273;BME280;63887;53.656;9.810;2022-12-04T03:49:59;102371.66;;;0.21;83.26
4273;BME280;63887;53.656;9.810;2022-12-04T03:52:31;102371.44;;;0.06;83.77
4273;BME280;63887;53.656;9.810;2022-12-04T03:55:01;102369.91;;;0.20;82.94
4273;BME280;63887;53.656;9.810;2022-12-04T03:57:33;102370.63;;;0.10;84.28
4273;BME280;63887;53.656;9.810;2022-12-04T04:00:06;102366.41;;;0.15;83.63
4273;BME280;63887;53.656;9.810;2022-12-04T04:02:38;102363.00;;;0.18;83.44
4273;BME280;63887;53.656;9.810;2022-12-04T04:05:08;102364.78;;;0.22;84.21
4273;BME280;63887;53.656;9.810;2022-12-04T04:07:40;102363.00;;;0.16;83.96
4273;BME280;63887;53.656;9.810;2022-12-04T04:10:13;102364.94;;;0.33;84.00
4273;BME280;63887;53.656;9.810;2022-12-04T04:12:43;102358.63;;;0.14;83.81
4273;BME280;63887;53.656;9.810;2022-12-04T04:15:14;102354.47;;;0.23;83.75
4273;BME280;63887;53.656;9.810;2022-12-04T04:18:00;102355.72;;;0.54;81.79
4273;BME280;63887;53.656;9.810;2022-12-04T04:20:47;102366.56;;;0.27;83.49
4273;BME280;63887;53.656;9.810;2022-12-04T04:23:35;102363.97;;;0.27;83.21
4273;BME280;63887;53.656;9.810;2022-12-04T04:26:21;102354.53;;;0.29;83.92
4273;BME280;63887;53.656;9.810;2022-12-04T04:28:49;102358.16;;;0.44;83.18
4273;BME280;63887;53.656;9.810;2022-12-04T04:31:22;102358.13;;;0.39;82.76
4273;BME280;63887;53.656;9.810;2022-12-04T04:33:56;102359.63;;;0.23;83.32
4273;BME280;63887;53.656;9.810;2022-12-04T04:36:32;102356.91;;;0.13;84.66
4273;BME280;63887;53.656;9.810;2022-12-04T04:39:07;102355.59;;;0.44;82.62
4273;BME280;63887;53.656;9.810;2022-12-04T04:41:41;102350.94;;;0.17;83.96
4273;BME280;63887;53.656;9.810;2022-12-04T04:44:14;102353.41;;;0.09;84.79
4273;BME280;63887;53.656;9.810;2022-12-04T04:46:48;102354.50;;;0.25;83.63
4273;BME280;63887;53.656;9.810;2022-12-04T04:49:16;102364.19;;;0.43;83.28
4273;BME280;63887;53.656;9.810;2022-12-04T04:51:45;102363.88;;;0.20;84.24
4273;BME280;63887;53.656;9.810;2022-12-04T04:54:13;102361.31;;;0.20;83.71
4273;BME280;63887;53.656;9.810;2022-12-04T04:56:42;102360.59;;;0.30;84.07
4273;BME280;63887;53.656;9.810;2022-12-04T04:59:10;102364.75;;;0.20;84.37
4273;BME280;63887;53.656;9.810;2022-12-04T05:01:37;102364.78;;;0.23;84.08
4273;BME280;63887;53.656;9.810;2022-12-04T05:04:06;102366.66;;;0.34;83.78
4273;BME280;63887;53.656;9.810;2022-12-04T05:06:33;102365.75;;;0.30;84.29
4273;BME280;63887;53.656;9.810;2022-12-04T05:08:59;102365.16;;;0.51;83.31
4273;BME280;63887;53.656;9.810;2022-12-04T05:11:26;102367.50;;;0.33;83.56
4273;BME280;63887;53.656;9.810;2022-12-04T05:13:52;102369.00;;;0.15;84.97
4273;BME280;63887;53.656;9.810;2022-12-04T05:16:18;102373.41;;;0.24;84.32
4273;BME280;63887;53.656;9.810;2022-12-04T05:18:45;102375.34;;;0.42;83.87
4273;BME280;63887;53.656;9.810;2022-12-04T05:21:33;102373.41;;;0.24;84.07
4273;BME280;63887;53.656;9.810;2022-12-04T05:23:58;102375.94;;;0.21;84.12
4273;BME280;63887;53.656;9.810;2022-12-04T05:26:25;102387.06;;;0.15;85.19
4273;BME280;63887;53.656;9.810;2022-12-04T05:28:51;102382.69;;;0.11;85.21
4273;BME280;63887;53.656;9.810;2022-12-04T05:31:17;102382.81;;;0.20;85.14
4273;BME280;63887;53.656;9.810;2022-12-04T05:33:44;102386.31;;;0.25;84.02
4273;BME280;63887;53.656;9.810;2022-12-04T05:36:11;102374.31;;;0.27;84.38
4273;BME280;63887;53.656;9.810;2022-12-04T05:38:39;102371.81;;;0.32;84.36
4273;BME280;63887;53.656;9.810;2022-12-04T05:41:06;102368.41;;;0.38;84.37
4273;BME280;63887;53.656;9.810;2022-12-04T05:43:32;102368.47;;;0.42;83.79
4273;BME280;63887;53.656;9.810;2022-12-04T05:45:59;102364.13;;;0.38;83.61
4273;BME280;63887;53.656;9.810;2022-12-04T05:48:26;102363.06;;;0.22;84.25
4273;BME280;63887;53.656;9.810;2022-12-04T05:50:52;102358.84;;;0.29;84.91
4273;BME280;63887;53.656;9.810;2022-12-04T05:53:18;102367.34;;;0.22;85.02
4273;BME280;63887;53.656;9.810;2022-12-04T05:55:53;102361.50;;;0.35;84.61
4273;BME280;63887;53.656;9.810;2022-12-04T05:58:19;102368.28;;;0.28;84.81
4273;BME280;63887;53.656;9.810;2022-12-04T06:00:46;102375.94;;;0.19;84.91
4273;BME280;63887;53.656;9.810;2022-12-04T06:03:12;102373.53;;;0.33;84.46
4273;BME280;63887;53.656;9.810;2022-12-04T06:05:38;102371.84;;;0.35;84.48
4273;BME280;63887;53.656;9.810;2022-12-04T06:08:04;102376.16;;;0.38;84.42
4273;BME280;63887;53.656;9.810;2022-12-04T06:10:31;102373.59;;;0.38;84.48
4273;BME280;63887;53.656;9.810;2022-12-04T06:12:58;102369.97;;;0.26;84.89
4273;BME280;63887;53.656;9.810;2022-12-04T06:15:25;102374.47;;;0.41;84.34
4273;BME280;63887;53.656;9.810;2022-12-04T06:17:51;102373.38;;;0.22;85.15
4273;BME280;63887;53.656;9.810;2022-12-04T06:20:17;102377.91;;;0.39;84.87
4273;BME280;63887;53.656;9.810;2022-12-04T06:22:44;102373.38;;;0.21;85.45
4273;BME280;63887;53.656;9.810;2022-12-04T06:25:10;102373.34;;;0.19;85.57
4273;BME280;63887;53.656;9.810;2022-12-04T06:27:36;102383.97;;;0.44;84.93
4273;BME280;63887;53.656;9.810;2022-12-04T06:30:05;102382.31;;;0.46;84.53
4273;BME280;63887;53.656;9.810;2022-12-04T06:32:31;102387.28;;;0.32;84.62
4273;BME280;63887;53.656;9.810;2022-12-04T06:34:57;102382.41;;;0.56;83.65
4273;BME280;63887;53.656;9.810;2022-12-04T06:37:24;102382.25;;;0.43;84.65
4273;BME280;63887;53.656;9.810;2022-12-04T06:39:50;102384.16;;;0.59;84.30
4273;BME280;63887;53.656;9.810;2022-12-04T06:42:16;102385.59;;;0.36;84.44
4273;BME280;63887;53.656;9.810;2022-12-04T06:44:43;102384.84;;;0.44;85.02
4273;BME280;63887;53.656;9.810;2022-12-04T06:47:10;102382.06;;;0.29;85.10
4273;BME280;63887;53.656;9.810;2022-12-04T06:49:37;102381.53;;;0.54;85.01
4273;BME280;63887;53.656;9.810;2022-12-04T06:52:03;102386.88;;;0.67;83.86
4273;BME280;63887;53.656;9.810;2022-12-04T06:54:29;102378.88;;;0.47;84.78
4273;BME280;63887;53.656;9.810;2022-12-04T06:56:55;102385.94;;;0.60;84.65
4273;BME280;63887;53.656;9.810;2022-12-04T06:59:22;102382.34;;;0.49;85.40
4273;BME280;63887;53.656;9.810;2022-12-04T07:01:48;102388.41;;;0.52;84.80
4273;BME280;63887;53.656;9.810;2022-12-04T07:04:18;102390.06;;;0.47;85.03
4273;BME280;63887;53.656;9.810;2022-12-04T07:06:44;102390.13;;;0.53;84.50
4273;BME280;63887;53.656;9.810;2022-12-04T07:09:12;102392.69;;;0.50;84.60
4273;BME280;63887;53.656;9.810;2022-12-04T07:11:39;102390.06;;;0.47;85.45
4273;BME280;63887;53.656;9.810;2022-12-04T07:14:06;102396.22;;;0.58;84.52
4273;BME280;63887;53.656;9.810;2022-12-04T07:16:32;102394.28;;;0.42;85.59
4273;BME280;63887;53.656;9.810;2022-12-04T07:18:58;102391.13;;;0.62;84.72
4273;BME280;63887;53.656;9.810;2022-12-04T07:21:30;102388.44;;;0.57;84.96
4273;BME280;63887;53.656;9.810;2022-12-04T07:23:59;102394.38;;;0.48;85.76
4273;BME280;63887;53.656;9.810;2022-12-04T07:26:25;102393.41;;;0.42;85.46
4273;BME280;63887;53.656;9.810;2022-12-04T07:28:52;102393.41;;;0.40;85.68
4273;BME280;63887;53.656;9.810;2022-12-04T07:31:20;102397.72;;;0.41;86.19
4273;BME280;63887;53.656;9.810;2022-12-04T07:33:47;102395.44;;;0.63;84.85
4273;BME280;63887;53.656;9.810;2022-12-04T07:36:14;102399.75;;;0.64;84.85
4273;BME280;63887;53.656;9.810;2022-12-04T07:38:42;102402.28;;;0.61;85.08
4273;BME280;63887;53.656;9.810;2022-12-04T07:41:09;102403.94;;;0.55;85.67
4273;BME280;63887;53.656;9.810;2022-12-04T07:43:35;102400.44;;;0.52;86.06
4273;BME280;63887;53.656;9.810;2022-12-04T07:46:03;102404.75;;;0.51;85.95
4273;BME280;63887;53.656;9.810;2022-12-04T07:48:30;102402.34;;;0.65;85.52
4273;BME280;63887;53.656;9.810;2022-12-04T07:51:00;102398.88;;;0.63;85.41
4273;BME280;63887;53.656;9.810;2022-12-04T07:53:27;102405.84;;;0.70;85.68
4273;BME280;63887;53.656;9.810;2022-12-04T07:55:54;102399.78;;;0.68;84.87
4273;BME280;63887;53.656;9.810;2022-12-04T07:58:20;102407.53;;;0.67;85.39
4273;BME280;63887;53.656;9.810;2022-12-04T08:00:47;102400.59;;;0.64;85.94
4273;BME280;63887;53.656;9.810;2022-12-04T08:03:13;102396.28;;;0.62;86.20
4273;BME280;63887;53.656;9.810;2022-12-04T08:05:42;102394.91;;;0.91;84.42
4273;BME280;63887;53.656;9.810;2022-12-04T08:08:08;102388.09;;;0.99;84.22
4273;BME280;63887;53.656;9.810;2022-12-04T08:10:35;102384.63;;;0.96;84.16
4273;BME280;63887;53.656;9.810;2022-12-04T08:13:02;102386.53;;;1.13;84.04
4273;BME280;63887;53.656;9.810;2022-12-04T08:15:28;102394.22;;;1.07;83.58
4273;BME280;63887;53.656;9.810;2022-12-04T08:17:55;102392.38;;;0.97;84.25
4273;BME280;63887;53.656;9.810;2022-12-04T08:20:21;102403.53;;;0.93;84.21
4273;BME280;63887;53.656;9.810;2022-12-04T08:22:47;102410.22;;;0.76;85.97
4273;BME280;63887;53.656;9.810;2022-12-04T08:25:14;102403.38;;;0.79;85.77
4273;BME280;63887;53.656;9.810;2022-12-04T08:27:40;102408.72;;;0.95;85.09
4273;BME280;63887;53.656;9.810;2022-12-04T08:30:12;102394.19;;;1.04;84.41
4273;BME280;63887;53.656;9.810;2022-12-04T08:32:38;102403.72;;;1.10;84.38
4273;BME280;63887;53.656;9.810;2022-12-04T08:35:05;102407.75;;;0.85;85.15
4273;BME280;63887;53.656;9.810;2022-12-04T08:37:31;102403.44;;;0.85;85.39
4273;BME280;63887;53.656;9.810;2022-12-04T08:39:57;102403.47;;;0.88;85.25
4273;BME280;63887;53.656;9.810;2022-12-04T08:42:23;102409.63;;;1.00;85.37
4273;BME280;63887;53.656;9.810;2022-12-04T08:44:50;102413.91;;;0.98;84.90
4273;BME280;63887;53.656;9.810;2022-12-04T08:47:17;102407.91;;;1.00;84.68
4273;BME280;63887;53.656;9.810;2022-12-04T08:49:44;102400.28;;;1.12;84.51
4273;BME280;63887;53.656;9.810;2022-12-04T08:52:10;102405.50;;;1.18;84.47
4273;BME280;63887;53.656;9.810;2022-12-04T08:54:36;102410.78;;;1.26;84.24
4273;BME280;63887;53.656;9.810;2022-12-04T08:57:03;102416.81;;;1.27;84.63
4273;BME280;63887;53.656;9.810;2022-12-04T08:59:30;102407.34;;;1.29;83.92
4273;BME280;63887;53.656;9.810;2022-12-04T09:01:56;102402.31;;;1.41;83.51
4273;BME280;63887;53.656;9.810;2022-12-04T09:04:24;102403.84;;;1.22;84.92
4273;BME280;63887;53.656;9.810;2022-12-04T09:06:50;102402.22;;;1.33;84.41
4273;BME280;63887;53.656;9.810;2022-12-04T09:09:16;102405.56;;;1.22;84.86
4273;BME280;63887;53.656;9.810;2022-12-04T09:11:43;102403.19;;;1.43;84.17
4273;BME280;63887;53.656;9.810;2022-12-04T09:14:10;102398.03;;;1.46;83.45
4273;BME280;63887;53.656;9.810;2022-12-04T09:16:36;102398.13;;;1.55;83.11
4273;BME280;63887;53.656;9.810;2022-12-04T09:19:03;102399.75;;;1.45;83.46
4273;BME280;63887;53.656;9.810;2022-12-04T09:21:30;102395.66;;;1.67;83.13
4273;BME280;63887;53.656;9.810;2022-12-04T09:23:57;102398.25;;;1.72;82.95
4273;BME280;63887;53.656;9.810;2022-12-04T09:26:25;102387.91;;;1.69;83.66
4273;BME280;63887;53.656;9.810;2022-12-04T09:28:52;102392.22;;;1.73;83.66
4273;BME280;63887;53.656;9.810;2022-12-04T09:31:18;102388.81;;;1.78;83.89
4273;BME280;63887;53.656;9.810;2022-12-04T09:33:45;102384.56;;;1.87;83.22
4273;BME280;63887;53.656;9.810;2022-12-04T09:36:12;102387.25;;;1.94;82.49
4273;BME280;63887;53.656;9.810;2022-12-04T09:38:41;102380.28;;;1.89;82.19
4273;BME280;63887;53.656;9.810;2022-12-04T09:41:14;102380.28;;;1.89;82.74
4273;BME280;63887;53.656;9.810;2022-12-04T09:43:46;102387.25;;;1.96;82.29
4273;BME280;63887;53.656;9.810;2022-12-04T09:46:14;102377.75;;;1.98;81.84
4273;BME280;63887;53.656;9.810;2022-12-04T09:48:42;102380.28;;;1.90;82.10
4273;BME280;63887;53.656;9.810;2022-12-04T09:51:12;102388.88;;;1.83;82.87
4273;BME280;63887;53.656;9.810;2022-12-04T09:53:44;102385.44;;;1.84;83.26
4273;BME280;63887;53.656;9.810;2022-12-04T09:56:13;102390.72;;;2.01;82.17
4273;BME280;63887;53.656;9.810;2022-12-04T09:58:40;102382.06;;;1.97;82.41
4273;BME280;63887;53.656;9.810;2022-12-04T10:01:14;102377.84;;;2.10;81.81
4273;BME280;63887;53.656;9.810;2022-12-04T10:03:41;102365.72;;;2.03;82.40
4273;BME280;63887;53.656;9.810;2022-12-04T10:06:10;102375.22;;;2.05;82.85
4273;BME280;63887;53.656;9.810;2022-12-04T10:08:39;102364.84;;;2.02;83.08
4273;BME280;63887;53.656;9.810;2022-12-04T10:11:09;102371.81;;;2.16;82.30
4273;BME280;63887;53.656;9.810;2022-12-04T10:16:23;102365.00;;;2.27;81.46
4273;BME280;63887;53.656;9.810;2022-12-04T10:18:56;102366.72;;;2.23;81.82
4273;BME280;63887;53.656;9.810;2022-12-04T10:21:30;102358.97;;;2.29;81.86
4273;BME280;63887;53.656;9.810;2022-12-04T10:24:04;102364.16;;;2.35;81.04
4273;BME280;63887;53.656;9.810;2022-12-04T10:26:38;102367.66;;;2.47;81.05
4273;BME280;63887;53.656;9.810;2022-12-04T10:29:07;102358.16;;;2.39;81.10
4273;BME280;63887;53.656;9.810;2022-12-04T10:31:33;102359.91;;;2.47;80.82
4273;BME280;63887;53.656;9.810;2022-12-04T10:34:02;102359.81;;;2.30;81.52
4273;BME280;63887;53.656;9.810;2022-12-04T10:36:31;102361.63;;;2.48;81.11
4273;BME280;63887;53.656;9.810;2022-12-04T10:38:58;102352.13;;;2.39;81.45
4273;BME280;63887;53.656;9.810;2022-12-04T10:41:27;102356.44;;;2.38;81.34
4273;BME280;63887;53.656;9.810;2022-12-04T10:43:56;102352.13;;;2.41;81.65
4273;BME280;63887;53.656;9.810;2022-12-04T10:46:23;102358.19;;;2.47;81.74
4273;BME280;63887;53.656;9.810;2022-12-04T10:48:50;102358.13;;;2.38;82.03
4273;BME280;63887;53.656;9.810;2022-12-04T10:51:18;102354.72;;;2.42;81.43
4273;BME280;63887;53.656;9.810;2022-12-04T10:53:45;102356.41;;;2.37;81.46
4273;BME280;63887;53.656;9.810;2022-12-04T10:56:14;102359.97;;;2.57;80.91
4273;BME280;63887;53.656;9.810;2022-12-04T10:58:42;102365.13;;;2.59;80.86
4273;BME280;63887;53.656;9.810;2022-12-04T11:01:10;102352.16;;;2.53;81.15
4273;BME280;63887;53.656;9.810;2022-12-04T11:03:37;102351.31;;;2.58;81.36
4273;BME280;63887;53.656;9.810;2022-12-04T11:06:04;102355.66;;;2.64;80.57
4273;BME280;63887;53.656;9.810;2022-12-04T11:08:32;102342.69;;;2.64;81.18
4273;BME280;63887;53.656;9.810;2022-12-04T11:11:01;102341.88;;;2.69;81.13
4273;BME280;63887;53.656;9.810;2022-12-04T11:13:28;102334.09;;;2.73;80.65
4273;BME280;63887;53.656;9.810;2022-12-04T11:15:55;102342.72;;;2.68;80.98
4273;BME280;63887;53.656;9.810;2022-12-04T11:18:24;102334.91;;;2.61;81.13
4273;BME280;63887;53.656;9.810;2022-12-04T11:20:51;102334.06;;;2.65;81.51
4273;BME280;63887;53.656;9.810;2022-12-04T11:23:19;102334.06;;;2.60;82.01
4273;BME280;63887;53.656;9.810;2022-12-04T11:25:46;102337.56;;;2.79;80.67
4273;BME280;63887;53.656;9.810;2022-12-04T11:28:15;102335.84;;;2.77;80.98
4273;BME280;63887;53.656;9.810;2022-12-04T11:30:45;102327.19;;;2.68;81.85
4273;BME280;63887;53.656;9.810;2022-12-04T11:33:14;102332.34;;;2.67;81.30
4273;BME280;63887;53.656;9.810;2022-12-04T11:35:42;102331.47;;;2.63;81.87
4273;BME280;63887;53.656;9.810;2022-12-04T11:38:15;102321.97;;;2.56;82.05
4273;BME280;63887;53.656;9.810;2022-12-04T11:40:44;102318.50;;;2.60;82.00
4273;BME280;63887;53.656;9.810;2022-12-04T11:43:11;102317.69;;;2.69;81.78
4273;BME280;63887;53.656;9.810;2022-12-04T11:45:38;102315.09;;;2.78;81.45
4273;BME280;63887;53.656;9.810;2022-12-04T11:48:12;102309.91;;;2.75;81.95
4273;BME280;63887;53.656;9.810;2022-12-04T11:50:43;102313.38;;;2.76;81.79
4273;BME280;63887;53.656;9.810;2022-12-04T11:53:13;102309.06;;;2.75;81.94
4273;BME280;63887;53.656;9.810;2022-12-04T11:55:44;102299.56;;;2.74;81.89
4273;BME280;63887;53.656;9.810;2022-12-04T11:58:21;102303.88;;;2.73;82.15
4273;BME280;63887;53.656;9.810;2022-12-04T12:03:42;102302.16;;;2.80;82.06
4273;BME280;63887;53.656;9.810;2022-12-04T12:06:27;102293.50;;;2.72;82.64
4273;BME280;63887;53.656;9.810;2022-12-04T12:08:58;102296.13;;;2.87;82.15
4273;BME280;63887;53.656;9.810;2022-12-04T12:11:29;102296.13;;;2.93;81.61
4273;BME280;63887;53.656;9.810;2022-12-04T12:14:00;102293.53;;;2.93;81.80
4273;BME280;63887;53.656;9.810;2022-12-04T12:16:34;102295.28;;;2.86;82.27
4273;BME280;63887;53.656;9.810;2022-12-04T12:19:12;102294.41;;;2.92;81.97
4273;BME280;63887;53.656;9.810;2022-12-04T12:21:44;102291.81;;;2.96;81.63
4273;BME280;63887;53.656;9.810;2022-12-04T12:24:18;102288.38;;;2.99;82.16
4273;BME280;63887;53.656;9.810;2022-12-04T12:26:48;102290.94;;;2.97;82.29
4273;BME280;63887;53.656;9.810;2022-12-04T12:29:20;102296.13;;;2.96;82.01
4273;BME280;63887;53.656;9.810;2022-12-04T12:31:58;102295.25;;;2.94;82.20
4273;BME280;63887;53.656;9.810;2022-12-04T12:34:29;102290.97;;;2.99;81.95
4273;BME280;63887;53.656;9.810;2022-12-04T12:36:58;102290.97;;;3.08;81.75
4273;BME280;63887;53.656;9.810;2022-12-04T12:39:26;102288.34;;;2.97;82.48
4273;BME280;63887;53.656;9.810;2022-12-04T12:41:56;102297.00;;;3.12;81.69
4273;BME280;63887;53.656;9.810;2022-12-04T12:44:25;102295.31;;;3.15;81.58
4273;BME280;63887;53.656;9.810;2022-12-04T12:46:57;102295.28;;;3.02;82.37
4273;BME280;63887;53.656;9.810;2022-12-04T12:49:25;102286.66;;;3.04;82.33
4273;BME280;63887;53.656;9.810;2022-12-04T12:51:55;102290.09;;;3.02;82.76
4273;BME280;63887;53.656;9.810;2022-12-04T12:54:27;102278.00;;;3.05;82.40
4273;BME280;63887;53.656;9.810;2022-12-04T12:56:58;102283.19;;;3.04;82.74
4273;BME280;63887;53.656;9.810;2022-12-04T12:59:27;102269.38;;;3.17;81.61
4273;BME280;63887;53.656;9.810;2022-12-04T13:01:54;102273.69;;;3.13;81.78
4273;BME280;63887;53.656;9.810;2022-12-04T13:04:24;102265.91;;;3.25;81.41
4273;BME280;63887;53.656;9.810;2022-12-04T13:06:57;102268.50;;;3.12;82.21
4273;BME280;63887;53.656;9.810;2022-12-04T13:09:30;102262.47;;;3.29;81.38
4273;BME280;63887;53.656;9.810;2022-12-04T13:11:58;102267.63;;;3.22;81.88
4273;BME280;63887;53.656;9.810;2022-12-04T13:14:26;102255.53;;;3.25;81.62
4273;BME280;63887;53.656;9.810;2022-12-04T13:16:54;102252.06;;;3.36;80.89
4273;BME280;63887;53.656;9.810;2022-12-04T13:19:23;102253.81;;;3.24;81.73
4273;BME280;63887;53.656;9.810;2022-12-04T13:21:53;102251.22;;;3.24;81.89
4273;BME280;63887;53.656;9.810;2022-12-04T13:27:04;102246.88;;;3.39;80.85